createdAt,value
2018-08-11T06:05:48.875Z,65.80
2018-08-11T06:08:17.379Z,65.60
2018-08-11T06:10:45.849Z,66.10
2018-08-11T06:13:14.563Z,66.30
2018-08-11T06:15:43.413Z,66.50
2018-08-11T06:18:12.015Z,66.00
2018-08-11T06:20:42.091Z,65.60
2018-08-11T06:23:10.600Z,65.40
2018-08-11T06:25:39.118Z,65.10
2018-08-11T06:28:07.577Z,65.10
2018-08-11T06:30:36.184Z,64.80
2018-08-11T06:33:04.726Z,64.80
2018-08-11T06:35:33.282Z,64.20
2018-08-11T06:38:01.778Z,64.80
2018-08-11T06:40:30.329Z,64.40
2018-08-11T06:42:58.776Z,54.00
2018-08-11T06:45:28.005Z,56.20
2018-08-11T06:47:56.604Z,55.60
2018-08-11T06:50:25.257Z,56.30
2018-08-11T06:52:56.232Z,55.20
2018-08-11T06:55:24.806Z,55.20
2018-08-11T06:57:53.366Z,54.50
2018-08-11T07:00:21.861Z,54.70
2018-08-11T07:02:50.347Z,53.50
2018-08-11T07:05:18.862Z,54.30
2018-08-11T07:07:47.382Z,53.70
2018-08-11T07:10:15.911Z,52.70
2018-08-11T07:25:26.305Z,48.30
2018-08-11T07:27:54.765Z,48.60
2018-08-11T07:30:23.302Z,49.20
2018-08-11T07:32:51.863Z,47.70
2018-08-11T07:35:21.303Z,47.60
2018-08-11T07:37:49.749Z,46.70
2018-08-11T07:40:21.239Z,45.10
2018-08-11T07:42:49.717Z,45.60
2018-08-11T07:45:18.165Z,45.30
2018-08-11T07:47:46.865Z,45.60
2018-08-11T07:50:15.436Z,46.70
2018-08-11T07:52:44.185Z,45.10
2018-08-11T07:55:12.717Z,45.30
2018-08-11T07:57:41.227Z,44.60
2018-08-11T08:00:11.401Z,43.70
2018-08-11T08:02:40.385Z,42.00
2018-08-11T08:05:08.956Z,41.40
2018-08-11T08:07:37.555Z,41.30
2018-08-11T08:10:06.661Z,42.20
2018-08-11T08:12:35.239Z,41.70
2018-08-11T08:15:03.925Z,41.60
2018-08-11T08:17:32.427Z,40.80
2018-08-11T08:20:00.965Z,41.10
2018-08-11T08:22:29.525Z,41.70
2018-08-11T08:24:58.085Z,41.70
2018-08-11T08:27:26.596Z,40.50
2018-08-11T08:29:55.131Z,40.10
2018-08-11T08:32:23.644Z,39.40
2018-08-11T08:34:52.124Z,40.70
2018-08-11T08:37:20.608Z,39.80
2018-08-11T08:39:49.165Z,37.50
2018-08-11T08:42:17.613Z,35.50
2018-08-11T08:44:46.105Z,36.50
2018-08-11T08:47:15.553Z,36.70
2018-08-11T08:49:44.041Z,35.10
2018-08-11T08:52:12.530Z,34.40
2018-08-11T08:54:41.112Z,32.50
2018-08-11T08:57:09.649Z,32.30
2018-08-11T08:59:38.278Z,33.80
2018-08-11T09:02:06.779Z,33.40
2018-08-11T09:04:35.262Z,32.20
2018-08-11T09:07:03.956Z,32.60
2018-08-11T09:09:32.718Z,32.10
2018-08-11T09:12:01.280Z,30.30
2018-08-11T09:14:29.989Z,31.40
2018-08-11T09:16:58.568Z,31.10
2018-08-11T09:19:27.137Z,34.20
2018-08-11T09:21:55.652Z,34.00
2018-08-11T09:24:24.139Z,33.40
2018-08-11T09:26:52.628Z,31.90
2018-08-11T09:29:21.183Z,31.30
2018-08-11T09:31:49.729Z,34.30
2018-08-11T09:34:18.189Z,34.00
2018-08-11T09:36:46.720Z,31.60
2018-08-11T09:39:15.197Z,29.50
2018-08-11T09:41:43.689Z,28.50
2018-08-11T09:44:12.205Z,28.00
2018-08-11T09:46:40.793Z,27.70
2018-08-11T09:49:09.269Z,29.90
2018-08-11T09:51:37.777Z,29.50
2018-08-11T09:54:06.286Z,29.10
2018-08-11T09:56:34.733Z,28.60
2018-08-11T09:59:03.251Z,28.00
2018-08-11T10:01:37.141Z,27.60
2018-08-11T10:04:05.711Z,27.30
2018-08-11T10:06:34.192Z,26.30
2018-08-11T10:09:02.795Z,27.70
2018-08-11T10:11:31.378Z,27.40
2018-08-11T10:13:59.782Z,27.00
2018-08-11T10:16:28.288Z,26.40
2018-08-11T10:18:56.746Z,26.40
2018-08-11T10:21:25.208Z,26.60
2018-08-11T10:23:53.773Z,26.00
2018-08-11T10:26:22.265Z,25.70
2018-08-11T10:28:50.904Z,25.20
2018-08-11T10:31:19.434Z,25.80
2018-08-11T10:33:47.970Z,25.00
2018-08-11T10:36:16.400Z,25.30
2018-08-11T10:38:44.844Z,26.80
2018-08-11T10:41:13.430Z,26.60
2018-08-11T10:43:41.920Z,25.60
2018-08-11T10:46:10.466Z,24.70
2018-08-11T10:48:39.077Z,25.60
2018-08-11T10:51:07.668Z,25.90
2018-08-11T10:53:36.970Z,28.50
2018-08-11T10:56:05.655Z,31.40
2018-08-11T10:58:34.087Z,30.80
2018-08-11T11:01:02.552Z,34.30
2018-08-11T11:03:31.062Z,35.40
2018-08-11T11:05:59.507Z,37.40
2018-08-11T11:08:28.035Z,39.80
2018-08-11T11:10:56.480Z,40.60
2018-08-11T11:13:28.018Z,39.60
2018-08-11T11:15:56.482Z,40.50
2018-08-11T11:18:25.498Z,37.40
2018-08-11T11:20:54.588Z,36.50
2018-08-11T11:23:23.050Z,37.50
2018-08-11T11:25:51.543Z,35.90
2018-08-11T11:28:20.052Z,31.80
2018-08-11T11:30:48.648Z,27.90
2018-08-11T11:33:17.197Z,26.00
2018-08-11T11:35:45.771Z,25.90
2018-08-11T11:38:14.412Z,26.00
2018-08-11T11:40:43.839Z,25.90
2018-08-11T11:43:12.369Z,24.80
2018-08-11T11:45:40.865Z,24.10
2018-08-11T11:48:09.353Z,23.90
2018-08-11T11:50:37.906Z,25.30
2018-08-11T11:53:06.383Z,25.00
2018-08-11T11:55:34.856Z,23.90
2018-08-11T11:58:03.302Z,24.10
2018-08-11T12:00:31.792Z,24.20
2018-08-11T12:03:00.329Z,24.80
2018-08-11T12:05:28.847Z,24.80
2018-08-11T12:07:57.326Z,24.90
2018-08-11T12:10:25.822Z,26.70
2018-08-11T12:12:54.308Z,27.20
2018-08-11T12:15:22.760Z,26.80
2018-08-11T12:17:52.112Z,26.70
2018-08-11T12:20:20.630Z,25.40
2018-08-11T12:22:49.053Z,26.80
2018-08-11T12:25:17.638Z,29.60
2018-08-11T12:27:46.124Z,30.30
2018-08-11T12:30:14.634Z,31.60
2018-08-11T12:32:43.288Z,30.30
2018-08-11T12:35:11.898Z,29.60
2018-08-11T12:37:40.496Z,30.00
2018-08-11T12:40:09.585Z,28.30
2018-08-11T12:42:38.079Z,27.10
2018-08-11T12:45:06.841Z,26.40
2018-08-11T12:47:35.286Z,26.30
2018-08-11T12:50:03.805Z,25.90
2018-08-11T12:52:32.240Z,25.40
2018-08-11T12:55:00.670Z,26.20
2018-08-11T12:57:29.136Z,26.80
2018-08-11T12:59:57.568Z,27.70
2018-08-11T13:02:26.012Z,26.40
2018-08-11T13:04:54.461Z,25.90
2018-08-11T13:07:22.896Z,26.00
2018-08-11T13:09:51.378Z,26.90
2018-08-11T13:12:19.849Z,29.10
2018-08-11T13:14:48.319Z,30.30
2018-08-11T13:17:16.816Z,31.90
2018-08-11T13:19:45.339Z,33.80
2018-08-11T13:22:13.895Z,34.30
2018-08-11T13:24:42.333Z,36.10
2018-08-11T13:27:10.819Z,35.90
2018-08-11T13:29:39.273Z,34.90
2018-08-11T13:32:07.787Z,31.90
2018-08-11T13:34:36.345Z,31.00
2018-08-11T13:37:05.159Z,30.10
2018-08-11T13:39:33.600Z,30.40
2018-08-11T13:42:02.066Z,31.00
2018-08-11T13:44:30.582Z,33.40
2018-08-11T13:46:59.030Z,35.00
2018-08-11T13:49:27.484Z,34.40
2018-08-11T13:51:55.996Z,34.00
2018-08-11T13:54:24.483Z,33.90
2018-08-11T13:56:52.944Z,32.60
2018-08-11T13:59:21.396Z,33.20
2018-08-11T14:01:49.901Z,33.70
2018-08-11T14:04:18.445Z,33.00
2018-08-11T14:06:47.873Z,34.10
2018-08-11T14:09:16.499Z,33.20
2018-08-11T14:11:45.082Z,33.40
2018-08-11T14:14:13.684Z,34.10
2018-08-11T14:16:42.281Z,35.50
2018-08-11T14:19:10.808Z,34.00
2018-08-11T14:21:39.317Z,34.90
2018-08-11T14:24:08.161Z,34.60
2018-08-11T14:26:36.796Z,35.70
2018-08-11T14:29:05.214Z,36.40
2018-08-11T14:31:33.779Z,37.10
2018-08-11T14:34:02.202Z,36.30
2018-08-11T14:36:30.782Z,36.40
2018-08-11T14:38:59.205Z,35.30
2018-08-11T14:41:27.794Z,34.90
2018-08-11T14:43:56.336Z,36.80
2018-08-11T14:46:24.801Z,37.10
2018-08-11T14:48:53.280Z,37.40
2018-08-11T14:51:21.731Z,35.40
2018-08-11T14:53:50.270Z,35.90
2018-08-11T14:56:18.809Z,36.30
2018-08-11T14:58:47.274Z,36.20
2018-08-11T15:01:15.745Z,35.70
2018-08-11T15:03:44.235Z,36.10
2018-08-11T15:06:12.703Z,36.30
2018-08-11T15:08:41.240Z,36.40
2018-08-11T15:11:09.743Z,35.10
2018-08-11T15:13:38.621Z,36.00
2018-08-11T15:16:07.253Z,35.30
2018-08-11T15:18:35.769Z,35.70
2018-08-11T15:21:04.281Z,37.30
2018-08-11T15:23:32.931Z,38.10
2018-08-11T15:26:01.365Z,38.10
2018-08-11T15:28:29.925Z,36.50
2018-08-11T15:30:58.483Z,36.40
2018-08-11T15:33:27.160Z,36.70
2018-08-11T15:35:55.589Z,36.60
2018-08-11T15:38:27.082Z,37.90
2018-08-11T15:40:55.547Z,37.20
2018-08-11T15:43:30.702Z,37.80
2018-08-11T15:45:59.217Z,37.70
2018-08-11T15:48:28.533Z,37.60
2018-08-11T15:50:57.103Z,37.30
2018-08-11T15:53:25.576Z,36.60
2018-08-11T15:55:54.055Z,38.10
2018-08-11T15:58:22.499Z,37.80
2018-08-11T16:00:51.065Z,38.10
2018-08-11T16:03:19.616Z,38.40
2018-08-11T16:05:48.063Z,39.30
2018-08-11T16:08:16.850Z,39.60
2018-08-11T16:10:45.319Z,38.60
2018-08-11T16:13:13.798Z,38.80
2018-08-11T16:15:42.420Z,38.70
2018-08-11T16:18:10.935Z,38.80
2018-08-11T16:20:39.392Z,39.50
2018-08-11T16:23:07.872Z,39.60
2018-08-11T16:25:36.418Z,39.90
2018-08-11T16:28:05.206Z,41.10
2018-08-11T16:30:33.818Z,40.40
2018-08-11T16:33:02.610Z,40.80
2018-08-11T16:35:31.131Z,40.70
2018-08-11T16:37:59.624Z,40.90
2018-08-11T16:40:28.340Z,41.70
2018-08-11T16:42:56.827Z,41.20
2018-08-11T16:45:25.307Z,41.30
2018-08-11T16:47:53.836Z,40.90
2018-08-11T16:50:22.521Z,40.60
2018-08-11T16:52:51.088Z,41.70
2018-08-11T16:55:19.823Z,42.40
2018-08-11T16:57:48.492Z,42.30
2018-08-11T17:00:17.063Z,41.40
2018-08-11T17:02:45.661Z,42.70
2018-08-11T17:05:14.132Z,42.90
2018-08-11T17:07:42.740Z,42.80
2018-08-11T17:10:11.309Z,42.50
2018-08-11T17:12:40.106Z,43.20
2018-08-11T17:15:09.802Z,43.50
2018-08-11T17:17:38.311Z,43.50
2018-08-11T17:20:07.600Z,43.60
2018-08-11T17:22:36.189Z,43.70
2018-08-11T17:25:05.282Z,42.90
2018-08-11T17:27:34.263Z,43.50
2018-08-11T17:30:02.748Z,43.10
2018-08-11T17:32:31.257Z,43.30
2018-08-11T17:34:59.712Z,43.50
2018-08-11T17:37:28.192Z,43.90
2018-08-11T17:39:56.680Z,44.50
2018-08-11T17:42:25.142Z,44.40
2018-08-11T17:44:54.494Z,44.60
2018-08-11T17:47:22.954Z,45.30
2018-08-11T17:49:51.385Z,44.10
2018-08-11T17:52:19.834Z,44.40
2018-08-11T17:54:48.344Z,45.10
2018-08-11T17:57:16.911Z,45.40
2018-08-11T17:59:45.369Z,50.40
2018-08-11T18:02:13.974Z,51.80
2018-08-11T18:04:42.465Z,52.50
2018-08-11T18:07:10.943Z,53.10
2018-08-11T18:09:39.426Z,53.60
2018-08-11T18:12:08.091Z,54.10
2018-08-11T18:14:36.588Z,54.30
2018-08-11T18:17:05.202Z,54.60
2018-08-11T18:19:33.717Z,54.90
2018-08-11T18:22:02.218Z,55.00
2018-08-11T18:24:30.688Z,54.90
2018-08-11T18:26:59.096Z,55.40
2018-08-11T18:29:27.549Z,55.40
2018-08-11T18:31:56.018Z,55.50
2018-08-11T18:34:24.549Z,55.60
2018-08-11T18:36:53.024Z,56.00
2018-08-11T18:39:21.474Z,56.50
2018-08-11T18:41:49.890Z,56.90
2018-08-11T18:44:18.379Z,56.70
2018-08-11T18:46:46.994Z,57.00
2018-08-11T18:49:15.437Z,57.90
2018-08-11T18:51:44.013Z,57.40
2018-08-11T18:54:12.479Z,57.20
2018-08-11T18:56:41.130Z,57.60
2018-08-11T18:59:09.789Z,57.90
2018-08-11T19:01:38.256Z,58.40
2018-08-11T19:04:07.035Z,58.30
2018-08-11T19:06:35.490Z,58.00
2018-08-11T19:09:06.442Z,58.10
2018-08-11T19:11:34.874Z,58.20
2018-08-11T19:14:03.482Z,58.50
2018-08-11T19:16:32.035Z,58.50
2018-08-11T19:19:00.552Z,59.30
2018-08-11T19:21:29.004Z,59.20
2018-08-11T19:23:57.488Z,59.20
2018-08-11T19:26:25.998Z,59.40
2018-08-11T19:28:54.518Z,59.40
2018-08-11T19:31:22.996Z,59.80
2018-08-11T19:33:51.440Z,60.50
2018-08-11T19:36:20.126Z,60.60
2018-08-11T19:38:48.635Z,61.50
2018-08-11T19:41:17.076Z,62.00
2018-08-11T19:43:45.600Z,62.30
2018-08-11T19:46:14.114Z,62.80
2018-08-11T19:48:42.618Z,63.20
2018-08-11T19:51:11.189Z,63.00
2018-08-11T19:53:39.702Z,62.90
2018-08-11T19:56:08.169Z,63.10
2018-08-11T19:58:36.650Z,63.50
2018-08-11T20:01:05.354Z,63.80
2018-08-11T20:03:33.909Z,63.50
2018-08-11T20:06:02.389Z,63.50
2018-08-11T20:08:30.825Z,63.80
2018-08-11T20:10:59.317Z,64.50
2018-08-11T20:13:27.885Z,65.10
2018-08-11T20:15:56.346Z,65.60
2018-08-11T20:18:24.900Z,65.20
2018-08-11T20:20:53.499Z,65.20
2018-08-11T20:23:22.043Z,65.30
2018-08-11T20:25:50.589Z,65.60
